Time;durP1;ratioP1;P1;durP2;ratioP2;P2;SDS_P1;SDS_P2;PMS_P1;PMS_P2;Temp;Humidity;BMP_temperature;BMP_pressure;BME280_temperature;BME280_humidity;BME280_pressure;Samples;Min_cycle;Max_cycle;Signal;HPM_P1;HPM_P2
2020/12/27 00:02:17;;;;;;;5.80;4.10;;;1.70;99.90;;;;;;4935178;29;20192;-83
2020/12/27 00:04:43;;;;;;;7.13;4.90;;;0.20;99.90;;;;;;4935250;29;20700;-84
2020/12/27 00:07:19;;;;;;;9.93;3.63;;;0.10;99.90;;;;;;4934432;28;20448;-85
2020/12/27 00:09:45;;;;;;;7.60;5.43;;;0.20;99.90;;;;;;4933978;29;20270;-84
2020/12/27 00:12:12;;;;;;;9.00;4.47;;;0.10;99.90;;;;;;4947887;28;20440;-83
2020/12/27 00:14:38;;;;;;;5.27;3.70;;;0.10;99.90;;;;;;4931571;28;20456;-84
2020/12/27 00:17:13;;;;;;;9.87;4.80;;;0.10;99.90;;;;;;4930645;28;20436;-84
2020/12/27 00:19:42;;;;;;;4.80;3.80;;;0.10;99.90;;;;;;4951729;28;20491;-84
2020/12/27 00:22:09;;;;;;;2.97;2.67;;;0.10;99.90;;;;;;4950399;28;20452;-86
2020/12/27 00:24:35;;;;;;;5.90;3.87;;;0.10;99.90;;;;;;4955336;28;20502;-85
2020/12/27 00:27:06;;;;;;;4.27;3.23;;;0.10;99.90;;;;;;4954631;28;20450;-85
2020/12/27 00:29:32;;;;;;;16.27;4.63;;;0.20;99.90;;;;;;4956288;28;20465;-84
2020/12/27 00:32:00;;;;;;;7.33;4.43;;;0.90;99.90;;;;;;4938741;28;20483;-84
2020/12/27 00:34:26;;;;;;;6.03;3.87;;;0.10;99.90;;;;;;4955626;28;20711;-85
2020/12/27 00:36:58;;;;;;;6.33;3.87;;;0.20;99.90;;;;;;4924889;28;20477;-83
2020/12/27 00:39:25;;;;;;;5.27;4.17;;;0.20;99.90;;;;;;4933738;29;20776;-82
2020/12/27 00:41:50;;;;;;;6.77;4.37;;;0.10;99.90;;;;;;4939955;28;20440;-84
2020/12/27 00:44:17;;;;;;;5.00;4.20;;;0.20;99.90;;;;;;4950651;28;20877;-84
2020/12/27 00:46:47;;;;;;;6.40;3.97;;;0.20;99.90;;;;;;4938643;29;20838;-82
2020/12/27 00:49:13;;;;;;;6.90;3.30;;;0.10;99.90;;;;;;4956443;28;20432;-84
2020/12/27 00:51:41;;;;;;;9.10;4.77;;;0.10;99.90;;;;;;4923079;28;20443;-84
2020/12/27 00:54:07;;;;;;;6.10;4.17;;;0.10;99.90;;;;;;4934756;28;20285;-83
2020/12/27 00:56:33;;;;;;;5.73;3.93;;;0.10;99.90;;;;;;4953302;28;20472;-85
2020/12/27 00:59:02;;;;;;;8.63;4.63;;;0.10;99.90;;;;;;4952928;28;20476;-84
2020/12/27 01:01:27;;;;;;;9.13;4.90;;;0.10;99.90;;;;;;4956408;28;20283;-82
2020/12/27 01:03:53;;;;;;;8.30;4.00;;;0.00;99.90;;;;;;4953542;28;20846;-84
2020/12/27 01:06:28;;;;;;;5.53;3.73;;;0.00;99.90;;;;;;4937758;29;20196;-85
2020/12/27 01:08:55;;;;;;;6.43;4.37;;;0.00;99.90;;;;;;4934736;28;20202;-84
2020/12/27 01:11:23;;;;;;;8.17;4.20;;;0.00;99.90;;;;;;4956890;28;20461;-85
2020/12/27 01:13:49;;;;;;;9.10;4.67;;;0.00;99.90;;;;;;4936727;28;20539;-82
2020/12/27 01:16:19;;;;;;;14.13;4.73;;;0.00;99.90;;;;;;4956805;28;20434;-84
2020/12/27 01:18:49;;;;;;;8.07;3.80;;;0.00;99.90;;;;;;4938671;29;20504;-82
2020/12/27 01:21:22;;;;;;;6.63;4.30;;;0.00;99.90;;;;;;4954305;28;20464;-82
2020/12/27 01:23:48;;;;;;;6.37;3.97;;;-0.10;99.90;;;;;;4954760;28;20562;-81
2020/12/27 01:26:14;;;;;;;5.53;4.00;;;-0.10;99.90;;;;;;4938884;29;20490;-84
2020/12/27 01:28:42;;;;;;;7.93;4.00;;;-0.10;99.90;;;;;;4928406;29;20231;-83
2020/12/27 01:31:11;;;;;;;7.37;4.33;;;-0.10;99.90;;;;;;4941524;28;20221;-84
2020/12/27 01:33:37;;;;;;;8.90;4.80;;;-0.10;99.90;;;;;;4938183;29;20438;-84
2020/12/27 01:36:10;;;;;;;11.40;4.20;;;-0.20;99.90;;;;;;4938087;28;20444;-84
2020/12/27 01:38:35;;;;;;;8.17;5.20;;;-0.20;99.90;;;;;;4955761;28;20197;-84
2020/12/27 01:41:07;;;;;;;12.03;5.00;;;-0.20;99.90;;;;;;4941978;28;20955;-84
2020/12/27 01:43:33;;;;;;;7.00;4.73;;;-0.20;99.90;;;;;;4939062;29;20229;-84
2020/12/27 01:45:58;;;;;;;6.70;3.60;;;-0.20;99.90;;;;;;4955615;28;20538;-84
2020/12/27 01:48:24;;;;;;;7.30;4.53;;;-0.20;99.90;;;;;;4939111;29;20195;-84
2020/12/27 01:50:51;;;;;;;7.50;3.60;;;-0.10;99.90;;;;;;4941328;28;20288;-83
2020/12/27 01:53:23;;;;;;;6.27;4.03;;;-0.10;99.90;;;;;;4920278;29;20454;-83
2020/12/27 01:55:49;;;;;;;4.60;4.00;;;0.00;99.90;;;;;;4949869;28;20989;-80
2020/12/27 01:58:21;;;;;;;7.30;4.40;;;0.00;99.90;;;;;;4948132;28;20449;-82
2020/12/27 02:00:47;;;;;;;5.40;4.17;;;0.00;99.90;;;;;;4931438;28;20248;-82
2020/12/27 02:03:16;;;;;;;5.73;4.20;;;0.10;99.90;;;;;;4921993;28;20838;-83
2020/12/27 02:05:43;;;;;;;9.90;4.30;;;0.10;99.90;;;;;;4947805;28;20181;-83
2020/12/27 02:08:12;;;;;;;4.70;3.10;;;0.10;99.90;;;;;;4931363;28;20432;-85
2020/12/27 02:10:41;;;;;;;4.83;3.83;;;0.20;99.90;;;;;;4945920;28;20469;-84
2020/12/27 02:13:08;;;;;;;5.03;3.40;;;0.20;99.90;;;;;;4947502;28;20999;-84
2020/12/27 02:15:34;;;;;;;5.60;3.13;;;0.20;99.90;;;;;;4930778;28;20435;-85
2020/12/27 02:18:03;;;;;;;5.07;3.30;;;0.30;99.90;;;;;;4927891;28;20442;-85
2020/12/27 02:20:29;;;;;;;5.23;3.53;;;0.30;99.90;;;;;;4929065;29;20222;-82
2020/12/27 02:23:00;;;;;;;4.37;3.20;;;0.30;99.90;;;;;;4946926;28;20452;-84
2020/12/27 02:25:26;;;;;;;5.73;3.20;;;0.40;99.90;;;;;;4930972;28;20190;-84
2020/12/27 02:27:59;;;;;;;6.40;3.60;;;0.40;99.90;;;;;;4928703;28;20441;-84
2020/12/27 02:30:25;;;;;;;7.70;4.00;;;0.40;99.90;;;;;;4931796;29;20567;-84
2020/12/27 02:32:52;;;;;;;5.03;3.07;;;0.40;99.90;;;;;;4912211;28;20505;-84
2020/12/27 02:35:18;;;;;;;3.83;3.43;;;0.40;99.90;;;;;;4943781;28;20209;-81
2020/12/27 02:37:48;;;;;;;4.20;2.60;;;0.50;99.90;;;;;;4942889;28;20489;-84
2020/12/27 02:40:13;;;;;;;4.57;3.40;;;0.50;99.90;;;;;;4923980;28;20221;-84
2020/12/27 02:42:39;;;;;;;5.50;2.93;;;0.50;99.90;;;;;;4944472;28;20487;-84
2020/12/27 02:45:10;;;;;;;5.60;2.50;;;0.60;99.90;;;;;;4926468;28;20217;-82
2020/12/27 02:47:38;;;;;;;6.90;3.00;;;0.60;99.90;;;;;;4927179;29;20199;-83
2020/12/27 02:50:23;;;;;;;3.83;3.37;;;0.60;99.90;;;;;;4944503;28;20497;-84
2020/12/27 02:52:48;;;;;;;4.30;3.20;;;0.60;99.90;;;;;;4942274;28;20536;-83
2020/12/27 02:55:19;;;;;;;3.43;2.80;;;0.70;99.90;;;;;;4909427;28;20544;-84
2020/12/27 02:57:45;;;;;;;9.70;3.30;;;0.70;99.90;;;;;;4927407;28;20194;-83
2020/12/27 03:00:10;;;;;;;5.37;3.67;;;0.70;99.90;;;;;;4925469;28;20893;-85
2020/12/27 03:02:36;;;;;;;5.67;3.33;;;0.70;99.90;;;;;;4941677;28;20231;-83
2020/12/27 03:05:04;;;;;;;5.50;3.10;;;0.70;99.90;;;;;;4916198;28;20226;-81
2020/12/27 03:07:30;;;;;;;3.37;2.67;;;0.70;99.90;;;;;;4939948;28;20260;-84
2020/12/27 03:09:58;;;;;;;4.87;2.97;;;0.60;99.90;;;;;;4927247;28;20467;-84
2020/12/27 03:12:24;;;;;;;5.00;3.23;;;0.60;99.90;;;;;;4941229;28;20203;-82
2020/12/27 03:14:49;;;;;;;5.70;3.30;;;0.60;99.90;;;;;;4908728;28;21044;-83
2020/12/27 03:17:15;;;;;;;5.30;3.23;;;0.60;99.90;;;;;;4942034;28;20268;-83
2020/12/27 03:19:43;;;;;;;6.27;3.33;;;0.60;99.90;;;;;;4911332;28;20226;-82
2020/12/27 03:22:09;;;;;;;6.33;4.07;;;0.50;99.90;;;;;;4945016;28;20641;-84
2020/12/27 03:24:35;;;;;;;4.93;3.03;;;0.60;99.90;;;;;;4930053;28;20514;-83
2020/12/27 03:27:00;;;;;;;4.60;2.87;;;0.50;99.90;;;;;;4941275;28;20850;-80
2020/12/27 03:29:26;;;;;;;6.83;3.23;;;0.50;99.90;;;;;;4924895;29;20680;-83
2020/12/27 03:31:52;;;;;;;5.43;2.80;;;0.50;99.90;;;;;;4925822;28;20746;-83
2020/12/27 03:34:19;;;;;;;7.50;4.23;;;0.50;99.90;;;;;;4922402;28;20662;-83
2020/12/27 03:36:47;;;;;;;5.67;3.50;;;0.50;99.90;;;;;;4942522;28;20192;-82
2020/12/27 03:39:13;;;;;;;4.23;3.33;;;0.50;99.90;;;;;;4942080;28;20439;-83
2020/12/27 03:41:39;;;;;;;6.70;2.80;;;0.50;99.90;;;;;;4925636;28;20532;-82
2020/12/27 03:44:05;;;;;;;4.47;3.37;;;0.50;99.90;;;;;;4947229;28;20533;-83
2020/12/27 03:46:33;;;;;;;4.30;3.27;;;0.60;99.90;;;;;;4948108;28;20553;-83
2020/12/27 03:48:59;;;;;;;3.80;3.00;;;0.60;99.90;;;;;;4946214;28;20188;-82
2020/12/27 03:51:25;;;;;;;5.00;3.50;;;0.60;99.90;;;;;;4928157;29;20460;-82
2020/12/27 03:53:50;;;;;;;7.93;3.67;;;0.50;99.90;;;;;;4925556;28;20247;-83
2020/12/27 03:56:16;;;;;;;6.67;3.90;;;0.50;99.90;;;;;;4928239;28;20276;-83
2020/12/27 03:58:42;;;;;;;4.57;2.93;;;0.50;99.90;;;;;;4947124;28;20198;-82
2020/12/27 04:01:09;;;;;;;4.50;3.83;;;0.50;99.90;;;;;;4913702;28;20226;-82
2020/12/27 04:03:35;;;;;;;5.70;3.53;;;0.50;99.90;;;;;;4922039;28;20205;-82
2020/12/27 04:06:02;;;;;;;6.90;3.93;;;0.50;99.90;;;;;;4945776;28;21272;-81
2020/12/27 04:08:28;;;;;;;4.40;4.00;;;0.40;99.90;;;;;;4943626;28;20194;-82
2020/12/27 04:10:54;;;;;;;7.57;3.73;;;0.40;99.90;;;;;;4927414;28;20479;-82
2020/12/27 04:13:19;;;;;;;6.03;3.47;;;0.40;99.90;;;;;;4931248;29;21062;-82
2020/12/27 04:15:48;;;;;;;5.60;4.00;;;0.30;99.90;;;;;;4945008;28;20237;-82
2020/12/27 04:18:14;;;;;;;4.20;3.23;;;0.30;99.90;;;;;;4927161;28;20202;-82
2020/12/27 04:20:40;;;;;;;7.73;3.83;;;0.30;99.90;;;;;;4929251;29;20476;-82
2020/12/27 04:23:11;;;;;;;5.60;3.10;;;0.30;99.90;;;;;;4945594;28;20439;-82
2020/12/27 04:25:36;;;;;;;4.23;3.27;;;0.40;99.90;;;;;;4941710;28;21943;-83
2020/12/27 04:28:10;;;;;;;5.90;2.97;;;0.30;99.90;;;;;;4926232;28;20460;-83
2020/12/27 04:30:36;;;;;;;4.57;3.53;;;0.30;99.90;;;;;;4927972;29;20696;-83
2020/12/27 04:33:03;;;;;;;5.33;3.50;;;0.30;99.90;;;;;;4929102;28;20532;-83
2020/12/27 04:35:32;;;;;;;6.87;3.20;;;0.20;99.90;;;;;;4928726;29;20203;-83
2020/12/27 04:37:58;;;;;;;7.90;4.03;;;0.20;99.90;;;;;;4943979;28;20504;-83
2020/12/27 04:40:25;;;;;;;5.03;3.33;;;0.30;99.90;;;;;;4944785;28;20469;-81
2020/12/27 04:42:54;;;;;;;8.83;3.53;;;0.30;99.90;;;;;;4907115;28;20194;-79
2020/12/27 04:45:20;;;;;;;6.50;3.10;;;0.30;99.90;;;;;;4933149;29;20465;-84
2020/12/27 04:47:55;;;;;;;6.90;3.37;;;0.20;99.90;;;;;;4931833;28;20549;-84
2020/12/27 04:50:22;;;;;;;5.03;3.20;;;0.20;99.90;;;;;;4945296;28;21048;-81
2020/12/27 04:52:50;;;;;;;7.87;3.50;;;0.20;99.90;;;;;;4926550;28;20467;-84
2020/12/27 04:55:30;;;;;;;5.20;3.30;;;0.10;99.90;;;;;;4913703;28;21046;-84
2020/12/27 04:57:58;;;;;;;7.57;3.90;;;0.10;99.90;;;;;;4945029;28;20445;-82
2020/12/27 05:00:27;;;;;;;5.73;3.53;;;0.00;99.90;;;;;;4927991;29;21002;-84
2020/12/27 05:02:53;;;;;;;7.40;4.47;;;-0.10;99.90;;;;;;4927405;28;20504;-85
2020/12/27 05:05:18;;;;;;;4.50;3.03;;;-0.20;99.90;;;;;;4946012;28;20508;-84
2020/12/27 05:07:53;;;;;;;4.90;3.70;;;-0.30;99.90;;;;;;4930331;29;20194;-85
2020/12/27 05:10:21;;;;;;;5.17;3.67;;;-0.40;99.90;;;;;;4934482;29;20209;-83
2020/12/27 05:12:56;;;;;;;5.53;3.90;;;-0.40;99.90;;;;;;4950517;28;20431;-85
2020/12/27 05:15:25;;;;;;;5.60;3.43;;;-0.40;99.90;;;;;;4932238;28;20884;-83
2020/12/27 05:17:51;;;;;;;3.80;3.30;;;-0.40;99.90;;;;;;4942762;28;20440;-84
2020/12/27 05:20:19;;;;;;;6.73;3.17;;;-0.50;99.90;;;;;;4927823;28;20471;-83
2020/12/27 05:23:03;;;;;;;6.63;4.30;;;-0.50;99.90;;;;;;4931481;28;20235;-85
2020/12/27 05:25:49;;;;;;;6.50;4.33;;;-0.40;99.90;;;;;;4932930;29;20486;-84
2020/12/27 05:28:19;;;;;;;5.63;4.00;;;-0.50;99.90;;;;;;4948965;28;20502;-85
2020/12/27 05:30:49;;;;;;;5.17;3.27;;;-0.60;99.90;;;;;;4934251;29;20882;-86
2020/12/27 05:33:18;;;;;;;5.20;4.17;;;-0.50;99.90;;;;;;4953686;28;20585;-84
2020/12/27 05:36:02;;;;;;;7.03;4.20;;;-0.60;99.90;;;;;;4928525;29;20482;-85
2020/12/27 05:38:33;;;;;;;5.43;3.33;;;-0.60;99.90;;;;;;4933115;28;20459;-84
2020/12/27 05:41:03;;;;;;;6.07;4.00;;;-0.60;99.90;;;;;;4919930;28;21139;-85
2020/12/27 05:43:29;;;;;;;8.60;4.57;;;-0.60;99.90;;;;;;4949217;28;20917;-86
2020/12/27 05:45:58;;;;;;;5.33;3.80;;;-0.60;99.90;;;;;;4950189;28;20428;-85
2020/12/27 05:48:26;;;;;;;5.80;3.70;;;-0.50;99.90;;;;;;4952699;28;20482;-85
2020/12/27 05:50:52;;;;;;;4.83;3.50;;;-0.50;99.90;;;;;;4945464;28;20452;-85
2020/12/27 05:53:31;;;;;;;4.53;3.20;;;-0.50;99.90;;;;;;4951268;28;21281;-87
2020/12/27 05:56:05;;;;;;;5.73;4.10;;;-0.50;99.90;;;;;;4933046;28;20204;-83
2020/12/27 05:58:41;;;;;;;6.50;3.30;;;-0.50;99.90;;;;;;4920883;29;20450;-86
2020/12/27 06:01:11;;;;;;;5.17;4.00;;;-0.50;99.90;;;;;;4950151;28;20459;-86
2020/12/27 06:04:01;;;;;;;9.13;3.40;;;-0.60;99.90;;;;;;4933381;28;20475;-86
2020/12/27 06:06:51;;;;;;;6.07;2.40;;;-0.60;99.90;;;;;;4933807;28;20463;-85
2020/12/27 06:10:15;;;;;;;5.40;3.97;;;-0.60;99.90;;;;;;4948149;28;21721;-87
2020/12/27 06:13:27;;;;;;;4.87;3.07;;;-0.60;99.90;;;;;;4891973;29;20445;-86
2020/12/27 06:16:01;;;;;;;5.23;3.47;;;-0.70;99.90;;;;;;4932627;28;20501;-87
2020/12/27 06:18:30;;;;;;;7.13;3.77;;;-0.80;99.90;;;;;;4928778;28;20456;-88
2020/12/27 06:21:10;;;;;;;4.43;3.03;;;-0.70;99.90;;;;;;4927155;28;20490;-87
2020/12/27 06:23:38;;;;;;;5.63;3.83;;;-0.70;99.90;;;;;;4927751;29;20471;-88
2020/12/27 06:26:05;;;;;;;3.57;2.87;;;-0.70;99.90;;;;;;4910079;28;20445;-86
2020/12/27 06:28:36;;;;;;;6.07;3.27;;;-0.70;99.90;;;;;;4946289;28;20442;-87
2020/12/27 06:31:10;;;;;;;6.20;3.57;;;-0.70;99.90;;;;;;4944883;28;20462;-85
2020/12/27 06:33:46;;;;;;;5.33;3.87;;;-0.70;99.90;;;;;;4944897;28;20530;-87
2020/12/27 06:36:35;;;;;;;6.73;3.50;;;-0.60;99.90;;;;;;4930148;28;20454;-87
2020/12/27 06:39:35;;;;;;;6.30;3.17;;;-0.50;99.90;;;;;;4945831;28;20443;-86
2020/12/27 06:42:20;;;;;;;4.87;4.23;;;-0.60;99.90;;;;;;4929835;28;20458;-88
2020/12/27 06:44:52;;;;;;;3.30;2.60;;;-0.60;99.90;;;;;;4945274;28;20486;-87
2020/12/27 06:47:18;;;;;;;4.00;2.93;;;-0.40;99.90;;;;;;4920634;28;20442;-88
2020/12/27 06:49:45;;;;;;;3.57;2.57;;;-0.40;99.90;;;;;;4925948;29;20465;-88
2020/12/27 06:52:26;;;;;;;2.73;2.43;;;-0.50;99.90;;;;;;4921632;28;20542;-87
2020/12/27 06:54:54;;;;;;;5.70;3.23;;;-0.40;99.90;;;;;;4926285;28;20781;-86
2020/12/27 06:58:13;;;;;;;6.03;3.47;;;-0.40;99.90;;;;;;4912993;28;20481;-87
2020/12/27 07:00:42;;;;;;;2.97;2.37;;;-0.30;99.90;;;;;;4923982;29;20858;-88
2020/12/27 07:03:28;;;;;;;4.03;3.20;;;-0.20;99.90;;;;;;4923453;28;21170;-87
2020/12/27 07:06:09;;;;;;;3.60;3.17;;;-0.10;99.90;;;;;;4941976;28;20457;-89
2020/12/27 07:08:47;;;;;;;2.70;2.13;;;0.00;99.90;;;;;;4919577;28;20475;-87
2020/12/27 07:11:26;;;;;;;3.50;3.20;;;0.10;99.90;;;;;;4926222;28;20452;-88
2020/12/27 07:13:59;;;;;;;5.30;3.10;;;0.10;99.90;;;;;;4910729;28;20461;-87
2020/12/27 07:17:16;;;;;;;5.33;3.60;;;0.20;99.90;;;;;;4927843;28;20713;-88
2020/12/27 07:19:47;;;;;;;3.90;3.13;;;0.20;99.90;;;;;;4938073;28;21752;-88
2020/12/27 07:22:25;;;;;;;3.60;2.90;;;0.20;99.90;;;;;;4931599;29;20454;-89
2020/12/27 07:24:53;;;;;;;5.83;3.10;;;0.30;99.90;;;;;;4946414;28;20468;-88
2020/12/27 07:27:32;;;;;;;7.53;2.87;;;0.30;99.90;;;;;;4931223;28;20446;-87
2020/12/27 07:30:11;;;;;;;3.93;3.20;;;0.40;99.90;;;;;;4907448;28;20526;-86
2020/12/27 07:32:43;;;;;;;3.30;2.93;;;0.40;99.90;;;;;;4947806;28;20435;-88
2020/12/27 07:35:13;;;;;;;3.80;3.40;;;0.40;99.90;;;;;;4930190;28;20521;-87
2020/12/27 07:38:08;;;;;;;3.73;3.00;;;0.40;99.90;;;;;;4933583;28;20455;-85
2020/12/27 07:40:41;;;;;;;11.20;3.77;;;0.50;99.90;;;;;;4946923;28;20555;-87
2020/12/27 07:43:13;;;;;;;7.03;4.47;;;0.50;99.90;;;;;;4947532;28;20485;-86
2020/12/27 07:45:38;;;;;;;5.53;3.33;;;0.40;99.90;;;;;;4929787;29;20518;-88
2020/12/27 07:48:13;;;;;;;7.20;3.67;;;0.40;99.90;;;;;;4950392;28;20528;-86
2020/12/27 07:50:41;;;;;;;5.00;3.47;;;0.50;99.90;;;;;;4931707;29;20697;-87
2020/12/27 07:53:09;;;;;;;6.50;4.23;;;0.60;99.90;;;;;;4947109;28;20461;-88
2020/12/27 07:55:38;;;;;;;5.03;3.67;;;0.70;99.90;;;;;;4933420;28;20450;-85
2020/12/27 07:58:08;;;;;;;6.17;4.37;;;0.80;99.90;;;;;;4948010;28;20478;-89
2020/12/27 08:00:44;;;;;;;7.00;4.90;;;0.90;99.90;;;;;;4929465;29;20504;-87
2020/12/27 08:03:13;;;;;;;5.80;3.57;;;1.00;99.90;;;;;;4915240;28;20514;-87
2020/12/27 08:05:39;;;;;;;5.87;4.00;;;1.00;99.90;;;;;;4930570;29;20994;-86
2020/12/27 08:08:12;;;;;;;5.33;4.03;;;1.20;99.90;;;;;;4926969;28;20448;-84
2020/12/27 08:10:40;;;;;;;8.67;4.20;;;1.30;99.90;;;;;;4914087;28;20473;-85
2020/12/27 08:13:07;;;;;;;6.70;4.00;;;1.40;99.90;;;;;;4945506;28;20934;-87
2020/12/27 08:15:38;;;;;;;6.40;4.33;;;1.50;99.90;;;;;;4947269;28;20456;-85
2020/12/27 08:18:11;;;;;;;6.87;3.97;;;1.50;99.90;;;;;;4927332;28;20442;-86
2020/12/27 08:20:53;;;;;;;6.70;4.27;;;1.60;99.90;;;;;;4946289;28;20454;-84
2020/12/27 08:23:19;;;;;;;5.57;4.00;;;1.60;99.90;;;;;;4929065;29;20495;-84
2020/12/27 08:25:48;;;;;;;5.13;3.83;;;1.70;99.90;;;;;;4943304;28;20914;-83
2020/12/27 08:28:23;;;;;;;5.27;4.00;;;1.80;99.90;;;;;;4929169;28;20435;-84
2020/12/27 08:30:49;;;;;;;4.67;3.70;;;1.80;99.90;;;;;;4926998;28;20540;-82
2020/12/27 08:33:17;;;;;;;7.00;4.77;;;1.80;99.90;;;;;;4928656;28;21011;-84
2020/12/27 08:35:47;;;;;;;5.93;3.97;;;1.80;99.90;;;;;;4926563;28;20194;-82
2020/12/27 08:38:19;;;;;;;5.20;3.70;;;1.80;99.90;;;;;;4947123;28;20431;-84
2020/12/27 08:41:05;;;;;;;10.03;4.83;;;1.70;99.90;;;;;;4929712;29;20460;-83
2020/12/27 08:44:01;;;;;;;5.27;4.17;;;1.80;99.90;;;;;;4946147;28;20483;-84
2020/12/27 08:46:46;;;;;;;6.67;3.77;;;1.80;99.90;;;;;;4945807;28;20437;-84
2020/12/27 08:49:45;;;;;;;8.23;5.13;;;1.70;99.90;;;;;;4930560;28;20449;-84
2020/12/27 08:52:23;;;;;;;4.30;3.50;;;1.60;99.90;;;;;;4944013;28;20496;-86
2020/12/27 08:55:10;;;;;;;5.00;3.70;;;1.50;99.90;;;;;;4945627;28;20444;-84
2020/12/27 08:57:37;;;;;;;8.83;3.87;;;1.50;99.90;;;;;;4945216;28;20467;-86
2020/12/27 09:00:10;;;;;;;5.20;4.70;;;1.40;99.90;;;;;;4929795;28;20973;-84
2020/12/27 09:02:37;;;;;;;6.30;4.63;;;1.40;99.90;;;;;;4928518;29;20841;-84
2020/12/27 09:05:14;;;;;;;7.17;4.23;;;1.50;99.90;;;;;;4930849;28;20477;-81
2020/12/27 09:07:42;;;;;;;7.47;4.57;;;1.50;99.90;;;;;;4945100;28;20419;-85
2020/12/27 09:10:11;;;;;;;5.80;4.60;;;1.50;99.90;;;;;;4927942;28;20553;-84
2020/12/27 09:12:55;;;;;;;7.80;5.03;;;1.50;99.90;;;;;;4947027;28;20468;-86
2020/12/27 09:15:23;;;;;;;4.50;3.73;;;1.50;99.90;;;;;;4935542;28;20431;-87
2020/12/27 09:18:06;;;;;;;5.33;3.43;;;1.60;99.90;;;;;;4946515;28;20466;-83
2020/12/27 09:20:36;;;;;;;5.90;4.00;;;1.60;99.90;;;;;;4927972;28;20568;-87
2020/12/27 09:23:26;;;;;;;6.67;4.27;;;1.60;99.90;;;;;;4933209;28;21107;-85
2020/12/27 09:26:08;;;;;;;7.40;4.80;;;1.70;99.90;;;;;;4929875;28;20471;-86
2020/12/27 09:28:36;;;;;;;4.87;3.07;;;1.60;99.90;;;;;;4947611;28;20524;-85
2020/12/27 09:31:10;;;;;;;5.10;3.63;;;1.70;99.90;;;;;;4927890;28;20449;-84
2020/12/27 09:33:45;;;;;;;4.17;3.60;;;1.80;99.90;;;;;;4946805;28;20485;-87
2020/12/27 09:36:12;;;;;;;4.53;4.07;;;1.90;99.90;;;;;;4931279;28;20426;-86
2020/12/27 09:38:40;;;;;;;5.23;3.60;;;2.00;99.90;;;;;;4944542;28;20451;-84
2020/12/27 09:41:10;;;;;;;4.07;3.20;;;2.00;99.90;;;;;;4941793;28;20474;-84
2020/12/27 09:43:55;;;;;;;5.07;3.70;;;2.10;99.90;;;;;;4927559;28;20483;-84
2020/12/27 09:46:43;;;;;;;6.70;3.50;;;2.10;99.90;;;;;;4937550;28;20441;-84
2020/12/27 09:49:22;;;;;;;3.90;3.50;;;2.10;99.90;;;;;;4940876;28;20424;-84
2020/12/27 09:52:23;;;;;;;4.57;3.10;;;2.10;99.90;;;;;;4939497;28;20853;-88
2020/12/27 09:54:48;;;;;;;4.60;3.73;;;2.20;99.90;;;;;;4897361;28;20445;-88
2020/12/27 09:57:24;;;;;;;8.20;3.83;;;2.30;99.90;;;;;;4953541;28;20443;-89
2020/12/27 09:59:51;;;;;;;5.03;3.60;;;2.40;99.90;;;;;;4957816;28;20212;-86
2020/12/27 10:02:18;;;;;;;7.23;3.73;;;2.50;99.90;;;;;;4939694;28;20496;-87
2020/12/27 10:04:46;;;;;;;8.43;4.33;;;2.40;99.90;;;;;;4930689;29;20573;-88
2020/12/27 10:07:12;;;;;;;4.30;3.90;;;2.50;99.90;;;;;;4935498;28;20440;-85
2020/12/27 10:09:38;;;;;;;6.43;4.40;;;2.60;99.90;;;;;;4947757;28;20596;-87
2020/12/27 10:12:05;;;;;;;10.00;5.07;;;2.50;99.90;;;;;;4919792;28;20201;-86
2020/12/27 10:14:33;;;;;;;5.57;3.87;;;2.50;99.90;;;;;;4944097;28;20495;-86
2020/12/27 10:17:02;;;;;;;6.40;3.97;;;2.60;99.90;;;;;;4926300;28;20450;-86
2020/12/27 10:19:29;;;;;;;5.80;3.70;;;2.70;99.90;;;;;;4943610;28;20438;-87
2020/12/27 10:21:54;;;;;;;6.23;3.43;;;2.80;99.90;;;;;;4926634;28;20821;-84
2020/12/27 10:24:23;;;;;;;4.33;3.50;;;2.90;99.90;;;;;;4945383;28;20557;-85
2020/12/27 10:26:50;;;;;;;4.00;3.30;;;2.90;99.90;;;;;;4945421;28;20610;-84
2020/12/27 10:29:16;;;;;;;5.97;3.93;;;2.90;99.90;;;;;;4930800;29;20432;-83
2020/12/27 10:31:42;;;;;;;7.33;4.33;;;3.10;99.90;;;;;;4943960;28;20441;-82
2020/12/27 10:34:07;;;;;;;8.93;4.80;;;3.30;99.90;;;;;;4945916;28;20435;-83
2020/12/27 10:36:33;;;;;;;9.97;4.97;;;3.40;99.90;;;;;;4926611;29;20191;-85
2020/12/27 10:38:59;;;;;;;6.17;4.43;;;3.50;99.90;;;;;;4942701;28;20262;-83
2020/12/27 10:41:24;;;;;;;7.10;3.77;;;3.70;99.90;;;;;;4928906;28;20226;-85
2020/12/27 10:43:50;;;;;;;8.53;4.70;;;3.80;99.90;;;;;;4927376;28;20210;-84
2020/12/27 10:46:20;;;;;;;5.67;3.90;;;3.80;99.90;;;;;;4947504;28;20191;-84
2020/12/27 10:48:47;;;;;;;4.97;3.53;;;3.90;99.90;;;;;;4942110;28;20651;-85
2020/12/27 10:51:13;;;;;;;5.60;3.53;;;4.00;99.90;;;;;;4943147;28;20483;-84
2020/12/27 10:53:38;;;;;;;8.23;3.80;;;4.00;99.90;;;;;;4931232;28;20463;-80
2020/12/27 10:56:05;;;;;;;4.97;4.10;;;4.00;99.90;;;;;;4945295;28;20202;-84
2020/12/27 10:58:31;;;;;;;6.20;4.60;;;4.20;99.90;;;;;;4950401;28;20201;-84
2020/12/27 11:00:57;;;;;;;7.77;5.30;;;4.30;99.90;;;;;;4947731;28;20491;-84
2020/12/27 11:03:25;;;;;;;6.70;4.70;;;4.50;99.90;;;;;;4934402;28;20441;-84
2020/12/27 11:05:51;;;;;;;5.63;3.83;;;4.50;99.90;;;;;;4949565;28;20262;-83
2020/12/27 11:08:16;;;;;;;4.60;3.93;;;4.60;99.90;;;;;;4933077;29;20454;-84
2020/12/27 11:10:43;;;;;;;6.20;4.03;;;4.70;99.90;;;;;;4932762;28;20211;-82
2020/12/27 11:13:09;;;;;;;6.60;4.33;;;4.80;99.90;;;;;;4949644;28;20214;-85
2020/12/27 11:15:35;;;;;;;6.23;4.67;;;4.70;99.90;;;;;;4947198;28;20797;-85
2020/12/27 11:18:04;;;;;;;6.07;3.90;;;4.70;99.90;;;;;;4918678;28;20454;-82
2020/12/27 11:20:29;;;;;;;4.60;3.43;;;4.80;99.90;;;;;;4933506;29;20229;-84
2020/12/27 11:22:59;;;;;;;5.10;4.00;;;4.80;99.90;;;;;;4930654;28;20455;-83
2020/12/27 11:25:28;;;;;;;4.87;3.60;;;4.70;99.90;;;;;;4945849;28;20218;-86
2020/12/27 11:27:53;;;;;;;4.47;3.73;;;4.80;99.90;;;;;;4946449;28;20423;-86
2020/12/27 11:30:21;;;;;;;4.80;3.63;;;4.90;99.90;;;;;;4930891;29;20858;-87
2020/12/27 11:32:55;;;;;;;7.30;4.50;;;4.80;99.90;;;;;;4946594;28;20595;-84
2020/12/27 11:35:23;;;;;;;5.93;4.17;;;4.90;99.90;;;;;;4952749;28;20426;-87
2020/12/27 11:37:55;;;;;;;5.30;4.50;;;5.00;99.90;;;;;;4915155;28;21014;-86
2020/12/27 11:40:23;;;;;;;5.10;4.10;;;4.90;99.90;;;;;;4933893;29;20843;-86
2020/12/27 11:42:49;;;;;;;5.70;3.87;;;4.90;99.90;;;;;;4918630;28;21200;-87
2020/12/27 11:45:21;;;;;;;5.80;4.20;;;4.90;99.90;;;;;;4950576;28;20477;-87
2020/12/27 11:47:47;;;;;;;5.03;4.10;;;4.80;99.90;;;;;;4935739;29;20678;-87
2020/12/27 11:50:23;;;;;;;5.40;4.07;;;4.80;99.90;;;;;;4928045;28;20473;-86
2020/12/27 11:53:01;;;;;;;6.93;3.80;;;4.60;99.90;;;;;;4932266;28;20198;-85
2020/12/27 11:55:37;;;;;;;7.97;4.27;;;4.60;99.90;;;;;;4944918;28;20484;-88
2020/12/27 11:58:02;;;;;;;4.37;3.80;;;4.60;99.90;;;;;;4929146;28;20441;-87
2020/12/27 12:00:32;;;;;;;6.97;3.97;;;4.50;99.90;;;;;;4953915;28;20478;-86
2020/12/27 12:03:00;;;;;;;3.40;3.10;;;4.60;99.90;;;;;;4933033;28;20200;-87
2020/12/27 12:05:25;;;;;;;3.80;3.47;;;4.60;99.90;;;;;;4919365;28;20570;-86
2020/12/27 12:07:57;;;;;;;4.83;3.67;;;4.70;99.90;;;;;;4936044;28;20451;-86
2020/12/27 12:10:23;;;;;;;5.90;3.87;;;4.70;99.90;;;;;;4932637;29;20683;-85
2020/12/27 12:12:48;;;;;;;7.73;4.00;;;4.50;99.90;;;;;;4918299;28;20439;-86
2020/12/27 12:15:14;;;;;;;3.43;3.13;;;4.40;99.90;;;;;;4949770;28;20191;-85
2020/12/27 12:17:40;;;;;;;4.13;3.00;;;4.40;99.90;;;;;;4936344;29;20187;-86
2020/12/27 12:20:42;;;;;;;7.50;3.50;;;4.30;99.90;;;;;;4931746;28;20237;-86
2020/12/27 12:22:56;;;;;;;7.77;3.63;;;4.40;99.90;;;;;;4943591;28;20443;-86
2020/12/27 12:25:28;;;;;;;5.67;3.47;;;4.50;99.90;;;;;;4932683;29;20466;-85
2020/12/27 12:27:59;;;;;;;4.50;3.63;;;4.60;99.90;;;;;;4934910;28;20518;-87
2020/12/27 12:30:24;;;;;;;4.47;3.73;;;4.60;99.90;;;;;;4947590;28;21170;-89
2020/12/27 12:33:01;;;;;;;4.50;3.93;;;4.50;99.90;;;;;;4946194;28;20507;-88
2020/12/27 12:35:26;;;;;;;3.63;3.03;;;4.70;99.90;;;;;;4928604;29;20270;-88
2020/12/27 12:37:52;;;;;;;5.80;3.40;;;4.70;99.90;;;;;;4920741;28;21124;-86
2020/12/27 12:40:31;;;;;;;5.80;4.40;;;4.80;99.90;;;;;;5074247;23;20239;-86
2020/12/27 12:43:12;;;;;;;4.17;3.67;;;4.80;99.90;;;;;;4919497;29;20211;-85
2020/12/27 12:45:51;;;;;;;5.53;3.73;;;4.90;99.90;;;;;;4933828;29;20534;-86
2020/12/27 12:48:17;;;;;;;4.40;3.70;;;4.90;99.90;;;;;;4919481;29;20444;-87
2020/12/27 12:50:42;;;;;;;5.50;3.57;;;4.90;99.90;;;;;;4908815;29;20459;-87
2020/12/27 12:53:08;;;;;;;4.63;4.10;;;4.80;99.90;;;;;;4929570;29;20181;-87
2020/12/27 12:55:50;;;;;;;7.93;3.83;;;4.90;99.90;;;;;;4929381;29;20279;-88
2020/12/27 12:58:16;;;;;;;6.00;3.60;;;5.10;99.90;;;;;;4911128;29;20197;-88
2020/12/27 13:00:44;;;;;;;4.87;3.53;;;5.10;99.90;;;;;;4926106;29;20608;-88
2020/12/27 13:03:10;;;;;;;5.63;3.80;;;5.20;99.90;;;;;;4907388;29;20574;-88
2020/12/27 13:05:36;;;;;;;7.60;4.30;;;5.20;99.90;;;;;;4916866;29;20479;-89
2020/12/27 13:08:05;;;;;;;5.73;4.00;;;5.30;99.90;;;;;;4908931;29;20769;-88
2020/12/27 13:10:50;;;;;;;4.83;3.83;;;5.30;99.90;;;;;;4913194;29;20232;-88
2020/12/27 13:13:18;;;;;;;7.20;4.70;;;5.40;99.90;;;;;;4914335;29;20446;-87
2020/12/27 13:15:44;;;;;;;7.40;5.20;;;5.40;99.90;;;;;;4912375;29;20452;-87